sensor_id;sensor_type;location;lat;lon;timestamp;pressure;altitude;pressure_sealevel;temperature;humidity
77279;BME280;66332;50.436;15.378;2023-11-18T00:04:11;98530.50;;;2.54;100.00
77279;BME280;66332;50.436;15.378;2023-11-18T00:08:56;98536.78;;;2.40;100.00
77279;BME280;66332;50.436;15.378;2023-11-18T00:13:37;98541.28;;;2.27;100.00
77279;BME280;66332;50.436;15.378;2023-11-18T00:18:22;98547.88;;;2.31;100.00
77279;BME280;66332;50.436;15.378;2023-11-18T00:23:04;98546.56;;;2.37;100.00
77279;BME280;66332;50.436;15.378;2023-11-18T00:27:47;98552.72;;;2.36;100.00
77279;BME280;66332;50.436;15.378;2023-11-18T00:32:28;98561.91;;;2.40;100.00
77279;BME280;66332;50.436;15.378;2023-11-18T00:37:09;98569.00;;;2.38;100.00
77279;BME280;66332;50.436;15.378;2023-11-18T00:41:50;98578.19;;;2.42;100.00
77279;BME280;66332;50.436;15.378;2023-11-18T00:46:31;98589.16;;;2.57;100.00
77279;BME280;66332;50.436;15.378;2023-11-18T00:51:12;98592.78;;;2.65;100.00
77279;BME280;66332;50.436;15.378;2023-11-18T00:55:52;98591.41;;;2.39;100.00
77279;BME280;66332;50.436;15.378;2023-11-18T01:00:34;98609.91;;;2.34;100.00
77279;BME280;66332;50.436;15.378;2023-11-18T01:05:15;98608.03;;;2.47;100.00
77279;BME280;66332;50.436;15.378;2023-11-18T01:09:56;98610.38;;;2.50;100.00
77279;BME280;66332;50.436;15.378;2023-11-18T01:14:37;98612.41;;;2.47;100.00
77279;BME280;66332;50.436;15.378;2023-11-18T01:19:18;98608.38;;;2.43;100.00
77279;BME280;66332;50.436;15.378;2023-11-18T01:24:01;98612.25;;;2.48;100.00
77279;BME280;66332;50.436;15.378;2023-11-18T01:28:41;98630.44;;;2.60;100.00
77279;BME280;66332;50.436;15.378;2023-11-18T01:33:23;98627.84;;;2.71;100.00
77279;BME280;66332;50.436;15.378;2023-11-18T01:38:05;98635.28;;;2.53;100.00
77279;BME280;66332;50.436;15.378;2023-11-18T01:42:46;98644.47;;;2.57;100.00
77279;BME280;66332;50.436;15.378;2023-11-18T01:47:27;98644.81;;;2.64;100.00
77279;BME280;66332;50.436;15.378;2023-11-18T01:52:10;98649.91;;;2.54;100.00
77279;BME280;66332;50.436;15.378;2023-11-18T01:56:51;98657.56;;;2.67;100.00
77279;BME280;66332;50.436;15.378;2023-11-18T02:01:32;98665.47;;;2.65;100.00
77279;BME280;66332;50.436;15.378;2023-11-18T02:06:14;98665.00;;;2.71;100.00
77279;BME280;66332;50.436;15.378;2023-11-18T02:11:03;98680.25;;;2.65;100.00
77279;BME280;66332;50.436;15.378;2023-11-18T02:15:53;98673.50;;;2.51;100.00
77279;BME280;66332;50.436;15.378;2023-11-18T02:20:38;98683.19;;;2.60;100.00
77279;BME280;66332;50.436;15.378;2023-11-18T02:25:19;98684.59;;;2.42;100.00
77279;BME280;66332;50.436;15.378;2023-11-18T02:30:00;98682.69;;;2.55;100.00
77279;BME280;66332;50.436;15.378;2023-11-18T02:34:47;98690.84;;;2.50;100.00
77279;BME280;66332;50.436;15.378;2023-11-18T02:39:34;98691.19;;;2.46;100.00
77279;BME280;66332;50.436;15.378;2023-11-18T02:44:19;98691.31;;;2.44;100.00
77279;BME280;66332;50.436;15.378;2023-11-18T02:49:03;98701.47;;;2.47;100.00
77279;BME280;66332;50.436;15.378;2023-11-18T02:53:44;98697.78;;;2.39;100.00
77279;BME280;66332;50.436;15.378;2023-11-18T02:58:25;98694.59;;;2.35;100.00
77279;BME280;66332;50.436;15.378;2023-11-18T03:03:06;98700.16;;;2.42;100.00
77279;BME280;66332;50.436;15.378;2023-11-18T03:07:48;98697.88;;;2.37;100.00
77279;BME280;66332;50.436;15.378;2023-11-18T03:12:34;98702.03;;;2.28;100.00
77279;BME280;66332;50.436;15.378;2023-11-18T03:17:14;98699.19;;;2.43;100.00
77279;BME280;66332;50.436;15.378;2023-11-18T03:21:55;98702.25;;;2.37;100.00
77279;BME280;66332;50.436;15.378;2023-11-18T03:26:36;98704.84;;;2.37;100.00
77279;BME280;66332;50.436;15.378;2023-11-18T03:31:17;98695.66;;;2.55;100.00
77279;BME280;66332;50.436;15.378;2023-11-18T03:35:58;98700.75;;;2.45;100.00
77279;BME280;66332;50.436;15.378;2023-11-18T03:40:40;98703.81;;;2.39;100.00
77279;BME280;66332;50.436;15.378;2023-11-18T03:45:22;98710.13;;;2.24;100.00
77279;BME280;66332;50.436;15.378;2023-11-18T03:50:03;98705.53;;;2.27;100.00
77279;BME280;66332;50.436;15.378;2023-11-18T03:54:45;98704.88;;;2.48;100.00
77279;BME280;66332;50.436;15.378;2023-11-18T03:59:26;98707.28;;;2.04;100.00
77279;BME280;66332;50.436;15.378;2023-11-18T04:04:07;98718.00;;;2.11;100.00
77279;BME280;66332;50.436;15.378;2023-11-18T04:08:48;98717.78;;;2.14;100.00
77279;BME280;66332;50.436;15.378;2023-11-18T04:13:29;98717.97;;;2.00;100.00
77279;BME280;66332;50.436;15.378;2023-11-18T04:18:10;98705.44;;;2.29;100.00
77279;BME280;66332;50.436;15.378;2023-11-18T04:22:51;98714.78;;;2.32;100.00
77279;BME280;66332;50.436;15.378;2023-11-18T04:27:32;98719.81;;;2.33;100.00
77279;BME280;66332;50.436;15.378;2023-11-18T04:32:13;98725.38;;;2.28;100.00
77279;BME280;66332;50.436;15.378;2023-11-18T04:36:54;98734.13;;;2.39;100.00
77279;BME280;66332;50.436;15.378;2023-11-18T04:41:35;98742.09;;;2.24;100.00
77279;BME280;66332;50.436;15.378;2023-11-18T04:46:17;98735.38;;;2.22;100.00
77279;BME280;66332;50.436;15.378;2023-11-18T04:50:57;98731.72;;;2.24;100.00
77279;BME280;66332;50.436;15.378;2023-11-18T04:55:39;98743.19;;;2.33;100.00
77279;BME280;66332;50.436;15.378;2023-11-18T05:00:20;98743.84;;;2.59;100.00
77279;BME280;66332;50.436;15.378;2023-11-18T05:05:01;98739.94;;;2.53;100.00
77279;BME280;66332;50.436;15.378;2023-11-18T05:09:41;98745.91;;;2.43;100.00
77279;BME280;66332;50.436;15.378;2023-11-18T05:14:22;98742.63;;;2.52;100.00
77279;BME280;66332;50.436;15.378;2023-11-18T05:19:03;98750.50;;;2.39;100.00
77279;BME280;66332;50.436;15.378;2023-11-18T05:23:44;98763.47;;;2.39;100.00
77279;BME280;66332;50.436;15.378;2023-11-18T05:28:25;98754.97;;;2.37;100.00
77279;BME280;66332;50.436;15.378;2023-11-18T05:33:06;98764.53;;;2.37;100.00
77279;BME280;66332;50.436;15.378;2023-11-18T05:37:46;98768.91;;;2.36;100.00
77279;BME280;66332;50.436;15.378;2023-11-18T05:42:28;98776.22;;;2.42;100.00
77279;BME280;66332;50.436;15.378;2023-11-18T05:47:09;98784.00;;;2.42;100.00
77279;BME280;66332;50.436;15.378;2023-11-18T05:51:52;98787.19;;;2.46;100.00
77279;BME280;66332;50.436;15.378;2023-11-18T05:56:33;98776.59;;;2.49;100.00
77279;BME280;66332;50.436;15.378;2023-11-18T06:01:15;98790.38;;;2.38;100.00
77279;BME280;66332;50.436;15.378;2023-11-18T06:05:57;98793.53;;;2.30;100.00
77279;BME280;66332;50.436;15.378;2023-11-18T06:10:38;98803.81;;;2.32;100.00
77279;BME280;66332;50.436;15.378;2023-11-18T06:15:19;98807.69;;;2.26;100.00
77279;BME280;66332;50.436;15.378;2023-11-18T06:20:01;98811.53;;;2.21;100.00
77279;BME280;66332;50.436;15.378;2023-11-18T06:24:46;98812.59;;;2.18;100.00
77279;BME280;66332;50.436;15.378;2023-11-18T06:29:27;98819.44;;;2.19;100.00
77279;BME280;66332;50.436;15.378;2023-11-18T06:34:10;98826.28;;;2.20;100.00
77279;BME280;66332;50.436;15.378;2023-11-18T06:38:52;98827.72;;;2.24;100.00
77279;BME280;66332;50.436;15.378;2023-11-18T06:43:35;98834.78;;;2.22;100.00
77279;BME280;66332;50.436;15.378;2023-11-18T06:48:32;98833.69;;;2.14;100.00
77279;BME280;66332;50.436;15.378;2023-11-18T06:53:12;98833.13;;;2.21;100.00
77279;BME280;66332;50.436;15.378;2023-11-18T06:57:53;98838.75;;;2.15;100.00
77279;BME280;66332;50.436;15.378;2023-11-18T07:02:38;98845.31;;;2.32;100.00
77279;BME280;66332;50.436;15.378;2023-11-18T07:07:19;98846.97;;;2.33;100.00
77279;BME280;66332;50.436;15.378;2023-11-18T07:11:59;98849.28;;;2.25;100.00
77279;BME280;66332;50.436;15.378;2023-11-18T07:16:41;98857.34;;;2.33;100.00
77279;BME280;66332;50.436;15.378;2023-11-18T07:21:22;98856.41;;;2.34;100.00
77279;BME280;66332;50.436;15.378;2023-11-18T07:26:03;98872.97;;;2.44;100.00
77279;BME280;66332;50.436;15.378;2023-11-18T07:30:46;98878.91;;;2.58;100.00
77279;BME280;66332;50.436;15.378;2023-11-18T07:35:30;98885.66;;;2.60;100.00
77279;BME280;66332;50.436;15.378;2023-11-18T07:40:11;98892.91;;;2.68;100.00
77279;BME280;66332;50.436;15.378;2023-11-18T07:44:52;98887.53;;;2.58;100.00
77279;BME280;66332;50.436;15.378;2023-11-18T07:49:34;98888.34;;;2.59;100.00
77279;BME280;66332;50.436;15.378;2023-11-18T07:54:16;98894.13;;;2.86;100.00
77279;BME280;66332;50.436;15.378;2023-11-18T07:58:58;98903.47;;;3.00;100.00
77279;BME280;66332;50.436;15.378;2023-11-18T08:03:39;98897.63;;;2.74;100.00
77279;BME280;66332;50.436;15.378;2023-11-18T08:08:21;98901.41;;;2.81;100.00
77279;BME280;66332;50.436;15.378;2023-11-18T08:13:02;98897.19;;;2.80;100.00
77279;BME280;66332;50.436;15.378;2023-11-18T08:17:43;98910.34;;;2.66;100.00
77279;BME280;66332;50.436;15.378;2023-11-18T08:22:24;98914.84;;;2.75;100.00
77279;BME280;66332;50.436;15.378;2023-11-18T08:27:05;98921.84;;;2.86;100.00
77279;BME280;66332;50.436;15.378;2023-11-18T08:31:46;98931.91;;;2.90;100.00
77279;BME280;66332;50.436;15.378;2023-11-18T08:36:27;98938.91;;;3.12;100.00
77279;BME280;66332;50.436;15.378;2023-11-18T08:41:08;98940.59;;;3.25;100.00
77279;BME280;66332;50.436;15.378;2023-11-18T08:45:49;98940.38;;;3.28;100.00
77279;BME280;66332;50.436;15.378;2023-11-18T08:50:30;98934.00;;;3.20;100.00
77279;BME280;66332;50.436;15.378;2023-11-18T08:55:11;98943.34;;;3.45;100.00
77279;BME280;66332;50.436;15.378;2023-11-18T08:59:58;98954.69;;;2.98;100.00
77279;BME280;66332;50.436;15.378;2023-11-18T09:04:41;98964.56;;;3.17;100.00
77279;BME280;66332;50.436;15.378;2023-11-18T09:09:23;98976.84;;;3.15;100.00
77279;BME280;66332;50.436;15.378;2023-11-18T09:14:08;98982.31;;;3.23;100.00
77279;BME280;66332;50.436;15.378;2023-11-18T09:18:49;98987.38;;;3.25;100.00
77279;BME280;66332;50.436;15.378;2023-11-18T09:23:32;98988.34;;;3.24;100.00
77279;BME280;66332;50.436;15.378;2023-11-18T09:28:15;98989.72;;;3.63;100.00
77279;BME280;66332;50.436;15.378;2023-11-18T09:32:56;98991.94;;;3.45;100.00
77279;BME280;66332;50.436;15.378;2023-11-18T09:37:37;98989.16;;;3.24;100.00
77279;BME280;66332;50.436;15.378;2023-11-18T09:42:17;98989.00;;;3.14;100.00
77279;BME280;66332;50.436;15.378;2023-11-18T09:47:00;98990.41;;;3.54;100.00
77279;BME280;66332;50.436;15.378;2023-11-18T09:51:50;98991.78;;;3.35;100.00
77279;BME280;66332;50.436;15.378;2023-11-18T10:01:39;98996.50;;;3.30;100.00
77279;BME280;66332;50.436;15.378;2023-11-18T10:06:23;99000.22;;;3.50;100.00
77279;BME280;66332;50.436;15.378;2023-11-18T10:11:07;99010.41;;;3.76;100.00
77279;BME280;66332;50.436;15.378;2023-11-18T10:15:50;98996.66;;;3.51;100.00
77279;BME280;66332;50.436;15.378;2023-11-18T10:25:25;99012.25;;;3.05;100.00
77279;BME280;66332;50.436;15.378;2023-11-18T10:30:06;99007.28;;;3.48;100.00
77279;BME280;66332;50.436;15.378;2023-11-18T10:34:59;99008.88;;;3.84;100.00
77279;BME280;66332;50.436;15.378;2023-11-18T10:39:46;99009.72;;;3.96;100.00
77279;BME280;66332;50.436;15.378;2023-11-18T10:44:27;99007.22;;;3.95;100.00
77279;BME280;66332;50.436;15.378;2023-11-18T10:49:09;98993.72;;;4.01;100.00
77279;BME280;66332;50.436;15.378;2023-11-18T10:53:52;98998.25;;;3.99;100.00
77279;BME280;66332;50.436;15.378;2023-11-18T10:58:44;99006.38;;;3.83;100.00
77279;BME280;66332;50.436;15.378;2023-11-18T11:03:26;99008.81;;;3.39;100.00
77279;BME280;66332;50.436;15.378;2023-11-18T11:08:14;99022.75;;;3.38;100.00
77279;BME280;66332;50.436;15.378;2023-11-18T11:13:01;99022.25;;;3.33;100.00
77279;BME280;66332;50.436;15.378;2023-11-18T11:17:45;99011.91;;;3.56;100.00
77279;BME280;66332;50.436;15.378;2023-11-18T11:22:37;99017.28;;;3.99;100.00
77279;BME280;66332;50.436;15.378;2023-11-18T11:27:23;99013.94;;;4.42;100.00
77279;BME280;66332;50.436;15.378;2023-11-18T11:37:06;99008.88;;;4.84;100.00
77279;BME280;66332;50.436;15.378;2023-11-18T11:41:52;99017.19;;;4.78;100.00
77279;BME280;66332;50.436;15.378;2023-11-18T11:46:35;99029.88;;;4.60;100.00
77279;BME280;66332;50.436;15.378;2023-11-18T11:51:46;99032.16;;;4.31;99.50
77279;BME280;66332;50.436;15.378;2023-11-18T11:56:39;99032.88;;;4.22;100.00
77279;BME280;66332;50.436;15.378;2023-11-18T12:01:28;99033.22;;;4.28;100.00
77279;BME280;66332;50.436;15.378;2023-11-18T12:06:19;99031.59;;;4.39;100.00
77279;BME280;66332;50.436;15.378;2023-11-18T12:11:04;99033.47;;;4.48;100.00
77279;BME280;66332;50.436;15.378;2023-11-18T12:15:50;99040.09;;;4.07;100.00
77279;BME280;66332;50.436;15.378;2023-11-18T12:20:42;99046.84;;;4.09;100.00
77279;BME280;66332;50.436;15.378;2023-11-18T12:34:56;99036.09;;;4.03;100.00
77279;BME280;66332;50.436;15.378;2023-11-18T12:39:50;99023.44;;;4.21;100.00
77279;BME280;66332;50.436;15.378;2023-11-18T12:49:55;99021.94;;;4.62;100.00
77279;BME280;66332;50.436;15.378;2023-11-18T12:54:36;99010.72;;;4.50;100.00
77279;BME280;66332;50.436;15.378;2023-11-18T12:59:24;99003.66;;;4.29;100.00
77279;BME280;66332;50.436;15.378;2023-11-18T13:04:05;99014.53;;;4.34;100.00
77279;BME280;66332;50.436;15.378;2023-11-18T13:08:45;99002.56;;;4.32;100.00
77279;BME280;66332;50.436;15.378;2023-11-18T13:13:27;99004.34;;;4.43;100.00
77279;BME280;66332;50.436;15.378;2023-11-18T13:18:07;99007.13;;;4.62;100.00
77279;BME280;66332;50.436;15.378;2023-11-18T13:22:49;99003.19;;;4.35;100.00
77279;BME280;66332;50.436;15.378;2023-11-18T13:27:30;98993.09;;;4.42;100.00
77279;BME280;66332;50.436;15.378;2023-11-18T13:32:13;98990.03;;;4.26;100.00
77279;BME280;66332;50.436;15.378;2023-11-18T13:36:55;98983.13;;;4.47;100.00
77279;BME280;66332;50.436;15.378;2023-11-18T13:41:36;98985.50;;;4.50;100.00
77279;BME280;66332;50.436;15.378;2023-11-18T13:46:17;98983.38;;;4.55;100.00
77279;BME280;66332;50.436;15.378;2023-11-18T13:51:01;98993.91;;;4.54;96.69
77279;BME280;66332;50.436;15.378;2023-11-18T13:55:42;98997.16;;;4.78;98.13
77279;BME280;66332;50.436;15.378;2023-11-18T14:00:27;98977.56;;;4.52;96.77
77279;BME280;66332;50.436;15.378;2023-11-18T14:05:16;98977.00;;;4.37;99.40
77279;BME280;66332;50.436;15.378;2023-11-18T14:10:01;98980.28;;;4.50;97.15
77279;BME280;66332;50.436;15.378;2023-11-18T14:14:42;98985.06;;;4.45;98.54
77279;BME280;66332;50.436;15.378;2023-11-18T14:19:23;98990.00;;;4.59;97.31
77279;BME280;66332;50.436;15.378;2023-11-18T14:24:06;99006.56;;;4.47;99.16
77279;BME280;66332;50.436;15.378;2023-11-18T14:28:48;99006.28;;;4.29;100.00
77279;BME280;66332;50.436;15.378;2023-11-18T14:33:30;99010.50;;;4.42;98.41
77279;BME280;66332;50.436;15.378;2023-11-18T14:38:13;99010.78;;;4.05;97.96
77279;BME280;66332;50.436;15.378;2023-11-18T14:42:55;99015.59;;;4.32;97.24
77279;BME280;66332;50.436;15.378;2023-11-18T14:47:35;98998.13;;;4.11;99.26
77279;BME280;66332;50.436;15.378;2023-11-18T14:52:16;99000.72;;;4.11;99.44
77279;BME280;66332;50.436;15.378;2023-11-18T14:56:58;99005.78;;;4.13;98.28
77279;BME280;66332;50.436;15.378;2023-11-18T15:01:40;99008.53;;;4.00;100.00
77279;BME280;66332;50.436;15.378;2023-11-18T15:06:27;99012.56;;;3.93;100.00
77279;BME280;66332;50.436;15.378;2023-11-18T15:11:08;99012.06;;;3.99;99.90
77279;BME280;66332;50.436;15.378;2023-11-18T15:15:49;99030.06;;;4.02;100.00
77279;BME280;66332;50.436;15.378;2023-11-18T15:20:30;99016.06;;;3.92;100.00
77279;BME280;66332;50.436;15.378;2023-11-18T15:25:12;99004.03;;;3.91;100.00
77279;BME280;66332;50.436;15.378;2023-11-18T15:29:53;98993.75;;;3.78;100.00
77279;BME280;66332;50.436;15.378;2023-11-18T15:34:34;98969.25;;;3.92;100.00
77279;BME280;66332;50.436;15.378;2023-11-18T15:39:15;98969.50;;;3.66;100.00
77279;BME280;66332;50.436;15.378;2023-11-18T15:43:55;98977.75;;;3.60;100.00
77279;BME280;66332;50.436;15.378;2023-11-18T15:48:36;98981.53;;;3.45;100.00
77279;BME280;66332;50.436;15.378;2023-11-18T15:53:17;98990.97;;;3.35;100.00
77279;BME280;66332;50.436;15.378;2023-11-18T15:58:00;98994.44;;;3.22;100.00
77279;BME280;66332;50.436;15.378;2023-11-18T16:02:42;99001.31;;;3.24;100.00
77279;BME280;66332;50.436;15.378;2023-11-18T16:07:25;99000.19;;;3.39;100.00
77279;BME280;66332;50.436;15.378;2023-11-18T16:12:06;98986.09;;;3.30;100.00
77279;BME280;66332;50.436;15.378;2023-11-18T16:16:47;98980.69;;;3.44;100.00
77279;BME280;66332;50.436;15.378;2023-11-18T16:21:29;98972.75;;;3.24;100.00
77279;BME280;66332;50.436;15.378;2023-11-18T16:26:12;98987.06;;;3.29;100.00
77279;BME280;66332;50.436;15.378;2023-11-18T16:30:52;98998.00;;;3.21;100.00
77279;BME280;66332;50.436;15.378;2023-11-18T16:35:33;99006.47;;;3.12;100.00
77279;BME280;66332;50.436;15.378;2023-11-18T16:40:15;99006.47;;;3.12;100.00
77279;BME280;66332;50.436;15.378;2023-11-18T16:44:56;98982.03;;;3.15;100.00
77279;BME280;66332;50.436;15.378;2023-11-18T16:49:38;98981.69;;;3.19;100.00
77279;BME280;66332;50.436;15.378;2023-11-18T16:54:19;98977.75;;;3.03;100.00
77279;BME280;66332;50.436;15.378;2023-11-18T16:59:00;98979.50;;;3.37;100.00
77279;BME280;66332;50.436;15.378;2023-11-18T17:03:41;98973.81;;;3.43;100.00
77279;BME280;66332;50.436;15.378;2023-11-18T17:08:22;98965.41;;;3.17;100.00
77279;BME280;66332;50.436;15.378;2023-11-18T17:13:02;98964.75;;;3.03;100.00
77279;BME280;66332;50.436;15.378;2023-11-18T17:17:45;98973.81;;;3.32;100.00
77279;BME280;66332;50.436;15.378;2023-11-18T17:22:26;98976.13;;;3.13;100.00
77279;BME280;66332;50.436;15.378;2023-11-18T17:27:07;98962.94;;;2.92;100.00
77279;BME280;66332;50.436;15.378;2023-11-18T17:31:48;98953.88;;;2.97;100.00
77279;BME280;66332;50.436;15.378;2023-11-18T17:36:29;98957.19;;;2.99;100.00
77279;BME280;66332;50.436;15.378;2023-11-18T17:41:10;98969.06;;;3.15;100.00
77279;BME280;66332;50.436;15.378;2023-11-18T17:45:51;98985.78;;;2.99;100.00
77279;BME280;66332;50.436;15.378;2023-11-18T17:50:33;98968.41;;;2.65;100.00
77279;BME280;66332;50.436;15.378;2023-11-18T17:55:14;98942.59;;;2.50;100.00
77279;BME280;66332;50.436;15.378;2023-11-18T17:59:55;98953.09;;;2.49;100.00
77279;BME280;66332;50.436;15.378;2023-11-18T18:04:36;98949.00;;;2.58;100.00
77279;BME280;66332;50.436;15.378;2023-11-18T18:09:17;98943.31;;;2.28;100.00
77279;BME280;66332;50.436;15.378;2023-11-18T18:14:00;98947.75;;;2.02;100.00
77279;BME280;66332;50.436;15.378;2023-11-18T18:18:41;98964.53;;;2.10;100.00
77279;BME280;66332;50.436;15.378;2023-11-18T18:23:22;98927.06;;;1.77;100.00
77279;BME280;66332;50.436;15.378;2023-11-18T18:28:03;98904.38;;;1.68;100.00
77279;BME280;66332;50.436;15.378;2023-11-18T18:32:44;98901.38;;;1.48;100.00
77279;BME280;66332;50.436;15.378;2023-11-18T18:37:27;98902.94;;;1.38;100.00
77279;BME280;66332;50.436;15.378;2023-11-18T18:42:08;98904.94;;;1.34;100.00
77279;BME280;66332;50.436;15.378;2023-11-18T18:46:49;98883.47;;;1.20;100.00
77279;BME280;66332;50.436;15.378;2023-11-18T18:51:29;98873.81;;;1.22;100.00
77279;BME280;66332;50.436;15.378;2023-11-18T18:56:11;98862.31;;;1.38;100.00
77279;BME280;66332;50.436;15.378;2023-11-18T19:00:52;98868.94;;;1.43;100.00
77279;BME280;66332;50.436;15.378;2023-11-18T19:05:33;98883.84;;;1.52;100.00
77279;BME280;66332;50.436;15.378;2023-11-18T19:10:13;98863.47;;;1.47;100.00
77279;BME280;66332;50.436;15.378;2023-11-18T19:14:54;98870.81;;;1.41;100.00
77279;BME280;66332;50.436;15.378;2023-11-18T19:19:35;98855.59;;;1.23;100.00
77279;BME280;66332;50.436;15.378;2023-11-18T19:24:16;98853.13;;;1.34;100.00
77279;BME280;66332;50.436;15.378;2023-11-18T19:28:58;98862.56;;;1.10;100.00
77279;BME280;66332;50.436;15.378;2023-11-18T19:33:39;98839.66;;;1.04;100.00
77279;BME280;66332;50.436;15.378;2023-11-18T19:38:20;98834.47;;;1.17;100.00
77279;BME280;66332;50.436;15.378;2023-11-18T19:43:02;98831.25;;;0.87;100.00
77279;BME280;66332;50.436;15.378;2023-11-18T19:47:43;98812.53;;;0.84;100.00
77279;BME280;66332;50.436;15.378;2023-11-18T19:52:24;98829.22;;;0.67;100.00
77279;BME280;66332;50.436;15.378;2023-11-18T19:57:07;98810.84;;;0.57;100.00
77279;BME280;66332;50.436;15.378;2023-11-18T20:01:50;98797.22;;;0.55;100.00
77279;BME280;66332;50.436;15.378;2023-11-18T20:06:35;98797.78;;;0.33;100.00
77279;BME280;66332;50.436;15.378;2023-11-18T20:11:15;98803.91;;;0.58;100.00
77279;BME280;66332;50.436;15.378;2023-11-18T20:15:57;98788.59;;;0.42;100.00
77279;BME280;66332;50.436;15.378;2023-11-18T20:20:38;98788.50;;;0.43;100.00
77279;BME280;66332;50.436;15.378;2023-11-18T20:25:19;98796.88;;;0.47;100.00
77279;BME280;66332;50.436;15.378;2023-11-18T20:30:04;98778.44;;;0.39;100.00
77279;BME280;66332;50.436;15.378;2023-11-18T20:34:45;98792.13;;;0.41;100.00
77279;BME280;66332;50.436;15.378;2023-11-18T20:39:26;98797.50;;;0.51;100.00
77279;BME280;66332;50.436;15.378;2023-11-18T20:44:07;98801.84;;;0.63;100.00
77279;BME280;66332;50.436;15.378;2023-11-18T20:48:47;98778.56;;;0.76;100.00
77279;BME280;66332;50.436;15.378;2023-11-18T20:53:29;98785.81;;;0.83;100.00
77279;BME280;66332;50.436;15.378;2023-11-18T20:58:10;98779.81;;;0.83;100.00
77279;BME280;66332;50.436;15.378;2023-11-18T21:02:51;98779.00;;;0.82;100.00
77279;BME280;66332;50.436;15.378;2023-11-18T21:07:32;98751.97;;;0.86;100.00
77279;BME280;66332;50.436;15.378;2023-11-18T21:12:13;98753.00;;;0.84;100.00
77279;BME280;66332;50.436;15.378;2023-11-18T21:16:54;98768.31;;;0.74;100.00
77279;BME280;66332;50.436;15.378;2023-11-18T21:21:35;98766.94;;;0.94;100.00
77279;BME280;66332;50.436;15.378;2023-11-18T21:26:16;98771.31;;;0.94;100.00
77279;BME280;66332;50.436;15.378;2023-11-18T21:30:57;98754.94;;;0.93;100.00
77279;BME280;66332;50.436;15.378;2023-11-18T21:35:38;98739.53;;;0.91;100.00
77279;BME280;66332;50.436;15.378;2023-11-18T21:40:19;98753.53;;;0.89;100.00
77279;BME280;66332;50.436;15.378;2023-11-18T21:45:05;98739.81;;;1.00;100.00
77279;BME280;66332;50.436;15.378;2023-11-18T21:49:46;98715.59;;;1.01;100.00
77279;BME280;66332;50.436;15.378;2023-11-18T21:54:28;98698.72;;;0.95;100.00
77279;BME280;66332;50.436;15.378;2023-11-18T21:59:10;98704.72;;;0.96;100.00
77279;BME280;66332;50.436;15.378;2023-11-18T22:03:51;98704.59;;;0.97;100.00
77279;BME280;66332;50.436;15.378;2023-11-18T22:08:33;98700.38;;;0.96;100.00
77279;BME280;66332;50.436;15.378;2023-11-18T22:13:14;98708.53;;;1.03;100.00
77279;BME280;66332;50.436;15.378;2023-11-18T22:17:55;98707.97;;;1.23;100.00
77279;BME280;66332;50.436;15.378;2023-11-18T22:22:35;98696.84;;;1.10;100.00
77279;BME280;66332;50.436;15.378;2023-11-18T22:27:16;98693.16;;;1.12;100.00
77279;BME280;66332;50.436;15.378;2023-11-18T22:31:57;98691.53;;;1.11;100.00
77279;BME280;66332;50.436;15.378;2023-11-18T22:36:38;98673.63;;;1.08;100.00
77279;BME280;66332;50.436;15.378;2023-11-18T22:41:20;98658.91;;;1.09;100.00
77279;BME280;66332;50.436;15.378;2023-11-18T22:46:01;98658.22;;;1.07;100.00
77279;BME280;66332;50.436;15.378;2023-11-18T22:50:42;98636.63;;;1.19;100.00
77279;BME280;66332;50.436;15.378;2023-11-18T22:55:24;98652.59;;;1.37;100.00
77279;BME280;66332;50.436;15.378;2023-11-18T23:00:05;98622.44;;;1.36;100.00
77279;BME280;66332;50.436;15.378;2023-11-18T23:04:54;98623.31;;;1.48;100.00
77279;BME280;66332;50.436;15.378;2023-11-18T23:09:37;98621.38;;;1.38;100.00
77279;BME280;66332;50.436;15.378;2023-11-18T23:14:18;98615.47;;;1.36;100.00
77279;BME280;66332;50.436;15.378;2023-11-18T23:18:59;98608.56;;;1.48;100.00
77279;BME280;66332;50.436;15.378;2023-11-18T23:23:40;98603.75;;;1.44;100.00
77279;BME280;66332;50.436;15.378;2023-11-18T23:28:20;98604.06;;;1.39;100.00
77279;BME280;66332;50.436;15.378;2023-11-18T23:33:01;98602.94;;;1.43;100.00
77279;BME280;66332;50.436;15.378;2023-11-18T23:37:42;98613.53;;;1.51;100.00
77279;BME280;66332;50.436;15.378;2023-11-18T23:42:22;98603.84;;;1.42;100.00
77279;BME280;66332;50.436;15.378;2023-11-18T23:47:03;98595.84;;;1.45;100.00
77279;BME280;66332;50.436;15.378;2023-11-18T23:51:46;98585.25;;;1.48;100.00
77279;BME280;66332;50.436;15.378;2023-11-18T23:56:26;98566.31;;;1.48;100.00
